Time;durP1;ratioP1;P1;durP2;ratioP2;P2;SDS_P1;SDS_P2;PMS_P1;PMS_P2;Temp;Humidity;BMP_temperature;BMP_pressure;BME280_temperature;BME280_humidity;BME280_pressure;Samples;Min_cycle;Max_cycle;Signal;HPM_P1;HPM_P2
2021/12/21 00:00:56;;;;;;;14.10;6.77;;;;;;;-3.93;100.00;102565.75;2108003;28;20056;-69
2021/12/21 00:01:56;;;;;;;14.50;7.53;;;;;;;-3.93;100.00;102573.41;2107793;28;20035;-69
2021/12/21 00:02:57;;;;;;;17.43;6.53;;;;;;;-3.96;100.00;102565.63;2098814;28;20115;-67
2021/12/21 00:03:58;;;;;;;15.75;8.38;;;;;;;-3.97;100.00;102568.13;2098867;28;20103;-69
2021/12/21 00:04:58;;;;;;;16.08;6.65;;;;;;;-3.96;100.00;102564.75;2098763;28;20020;-68
2021/12/21 00:05:58;;;;;;;19.53;7.70;;;;;;;-3.95;100.00;102572.47;2098823;28;20028;-69
2021/12/21 00:06:59;;;;;;;14.83;7.43;;;;;;;-3.95;100.00;102569.03;2107744;28;20031;-69
2021/12/21 00:08:01;;;;;;;15.10;6.53;;;;;;;-3.96;100.00;102564.75;2107779;28;20066;-69
2021/12/21 00:09:02;;;;;;;16.80;6.95;;;;;;;-3.98;100.00;102574.03;2107820;28;20024;-69
2021/12/21 00:10:03;;;;;;;12.63;6.38;;;;;;;-4.02;100.00;102570.44;2107674;28;20052;-68
2021/12/21 00:11:03;;;;;;;12.20;7.03;;;;;;;-4.06;100.00;102563.44;2107737;28;20030;-70
2021/12/21 00:12:04;;;;;;;14.90;7.00;;;;;;;-4.03;100.00;102568.69;2107695;28;20293;-68
2021/12/21 00:13:21;;;;;;;16.27;6.38;;;;;;;-4.00;100.00;102563.75;2098671;28;20036;-68
2021/12/21 00:14:56;;;;;;;14.13;6.53;;;;;;;-4.03;100.00;102563.59;2101142;28;20022;-68
2021/12/21 00:16:02;;;;;;;14.70;6.85;;;;;;;-4.06;100.00;102563.44;2107642;28;20024;-69
2021/12/21 00:17:17;;;;;;;16.27;6.78;;;;;;;-4.09;100.00;102560.75;2107062;28;20028;-69
2021/12/21 00:18:39;;;;;;;13.50;7.13;;;;;;;-4.08;100.00;102554.88;2098555;28;20386;-69
2021/12/21 00:20:05;;;;;;;12.60;6.22;;;;;;;-4.09;100.00;102558.19;2101918;28;20511;-68
2021/12/21 00:22:19;;;;;;;15.33;7.00;;;;;;;-4.09;100.00;102558.19;2107868;28;20028;-68
2021/12/21 00:24:44;;;;;;;16.33;5.80;;;;;;;-4.03;100.00;102553.41;2107611;28;20031;-68
2021/12/21 00:25:45;;;;;;;16.00;6.78;;;;;;;-4.01;100.00;102555.22;2107670;28;20023;-68
2021/12/21 00:26:45;;;;;;;14.52;6.75;;;;;;;-3.99;100.00;102555.28;2107480;28;20020;-68
2021/12/21 00:27:48;;;;;;;14.20;7.23;;;;;;;-4.01;100.00;102551.78;2107675;28;20120;-69
2021/12/21 00:28:56;;;;;;;19.63;6.65;;;;;;;-4.03;100.00;102553.41;2107521;28;20460;-70
2021/12/21 00:29:56;;;;;;;16.13;7.50;;;;;;;-4.05;100.00;102555.00;2107592;28;20028;-69
2021/12/21 00:30:57;;;;;;;16.53;6.93;;;;;;;-4.05;100.00;102549.88;2107608;28;20024;-68
2021/12/21 00:31:57;;;;;;;14.83;5.73;;;;;;;-4.10;100.00;102549.69;2107643;28;20128;-68
2021/12/21 00:32:57;;;;;;;20.40;7.53;;;;;;;-4.09;100.00;102558.19;2107548;28;20043;-67
2021/12/21 00:33:58;;;;;;;17.40;7.13;;;;;;;-4.08;100.00;102547.22;2107552;28;20542;-69
2021/12/21 00:34:58;;;;;;;14.02;6.07;;;;;;;-4.08;100.00;102549.78;2098437;28;20052;-69
2021/12/21 00:35:59;;;;;;;15.67;7.10;;;;;;;-4.13;100.00;102547.84;2090266;28;20021;-68
2021/12/21 00:36:59;;;;;;;16.73;6.67;;;;;;;-4.18;100.00;102546.78;2098508;28;20021;-68
2021/12/21 00:37:59;;;;;;;20.87;8.30;;;;;;;-4.22;100.00;102541.47;2106887;28;20048;-69
2021/12/21 00:39:05;;;;;;;12.80;6.83;;;;;;;-4.23;100.00;102542.25;2098623;28;20032;-69
2021/12/21 00:40:08;;;;;;;14.23;7.15;;;;;;;-4.18;100.00;102545.94;2099337;28;20377;-68
2021/12/21 00:41:08;;;;;;;18.88;7.65;;;;;;;-4.16;100.00;102542.63;2107540;28;20032;-69
2021/12/21 00:42:08;;;;;;;15.53;6.70;;;;;;;-4.10;100.00;102543.72;2107526;28;20031;-69
2021/12/21 00:43:09;;;;;;;20.02;9.02;;;;;;;-4.09;100.00;102543.78;2098503;28;20556;-69
2021/12/21 00:44:09;;;;;;;18.03;8.93;;;;;;;-4.09;100.00;102545.44;2098454;28;20033;-69
2021/12/21 00:45:10;;;;;;;17.50;8.60;;;;;;;-4.16;100.00;102536.66;2106888;28;20024;-69
2021/12/21 00:46:11;;;;;;;16.45;7.65;;;;;;;-4.20;100.00;102539.88;2098383;28;20032;-69
2021/12/21 00:47:11;;;;;;;16.55;8.15;;;;;;;-4.25;100.00;102537.09;2098423;28;20032;-69
2021/12/21 00:48:11;;;;;;;21.37;8.97;;;;;;;-4.24;100.00;102536.31;2107428;28;20062;-69
2021/12/21 00:49:14;;;;;;;18.40;8.13;;;;;;;-4.23;100.00;102538.06;2107464;28;20024;-69
2021/12/21 00:50:17;;;;;;;16.52;8.60;;;;;;;-4.22;100.00;102536.34;2098303;28;20054;-69
2021/12/21 00:51:20;;;;;;;17.75;8.85;;;;;;;-4.23;100.00;102534.63;2098768;28;20027;-69
2021/12/21 00:52:20;;;;;;;18.15;8.50;;;;;;;-4.24;100.00;102536.31;2098374;28;20101;-69
2021/12/21 00:53:21;;;;;;;15.53;8.17;;;;;;;-4.22;100.00;102538.91;2098443;28;20122;-69
2021/12/21 00:54:21;;;;;;;14.33;8.33;;;;;;;-4.24;100.00;102533.75;2107487;28;20047;-69
2021/12/21 00:55:22;;;;;;;20.23;8.63;;;;;;;-4.26;100.00;102535.34;2107500;28;20031;-68
2021/12/21 00:56:23;;;;;;;18.83;8.63;;;;;;;-4.28;100.00;102536.94;2107361;28;20028;-69
2021/12/21 00:57:23;;;;;;;21.63;8.17;;;;;;;-4.31;100.00;102540.22;2107431;28;20099;-68
2021/12/21 00:58:23;;;;;;;23.57;9.27;;;;;;;-4.33;100.00;102533.31;2107392;28;20024;-69
2021/12/21 00:59:23;;;;;;;18.50;8.57;;;;;;;-4.37;100.00;102537.41;2107280;28;20024;-69
2021/12/21 01:00:24;;;;;;;17.00;7.93;;;;;;;-4.38;100.00;102539.88;2106831;28;20039;-70
2021/12/21 01:01:25;;;;;;;16.23;7.35;;;;;;;-4.40;100.00;102527.06;2107188;28;20028;-69
2021/12/21 01:02:25;;;;;;;16.17;8.07;;;;;;;-4.40;100.00;102542.34;2098308;28;20041;-69
2021/12/21 01:03:25;;;;;;;22.67;7.47;;;;;;;-4.44;100.00;102536.25;2089972;28;20029;-69
2021/12/21 01:04:33;;;;;;;15.57;7.63;;;;;;;-4.46;100.00;102539.50;2098334;28;20515;-70
2021/12/21 01:08:14;;;;;;;20.65;8.07;;;;;;;-4.41;100.00;102541.47;2102565;28;20461;-69
2021/12/21 01:09:48;;;;;;;16.13;7.75;;;;;;;-4.38;100.00;102539.88;2107284;28;20035;-69
2021/12/21 01:10:52;;;;;;;15.40;7.60;;;;;;;-4.34;100.00;102536.69;2106989;28;20028;-68
2021/12/21 01:11:56;;;;;;;23.10;8.57;;;;;;;-4.33;100.00;102540.97;2106527;28;20028;-69
2021/12/21 01:13:11;;;;;;;15.90;7.38;;;;;;;-4.37;100.00;102542.50;2106774;28;20031;-69
2021/12/21 01:15:50;;;;;;;18.23;7.18;;;;;;;-4.43;100.00;102542.22;2101023;28;20062;-69
2021/12/21 01:17:19;;;;;;;14.13;6.03;;;;;;;-4.40;100.00;102543.25;2107255;28;20031;-67
2021/12/21 01:18:17;;;;;;;13.02;6.28;;;;;;;-4.35;100.00;102540.88;2106703;28;20032;-69
2021/12/21 01:19:23;;;;;;;17.30;7.78;;;;;;;-4.35;100.00;102542.59;2098143;28;20017;-69
2021/12/21 01:20:38;;;;;;;18.85;6.97;;;;;;;-4.42;100.00;102544.84;2099101;28;20048;-69
2021/12/21 01:21:47;;;;;;;13.57;7.03;;;;;;;-4.46;100.00;102548.03;2098091;28;20107;-69
2021/12/21 01:29:10;;;;;;;13.77;7.05;;;;;;;-4.41;100.00;102545.72;2106255;28;20039;-69
2021/12/21 01:30:59;;;;;;;16.98;7.95;;;;;;;-4.42;100.00;102547.38;2106181;28;20539;-69
2021/12/21 01:31:56;;;;;;;16.70;6.90;;;;;;;-4.44;100.00;102546.44;2100732;28;20509;-69
2021/12/21 01:34:29;;;;;;;18.98;6.78;;;;;;;-4.55;100.00;102542.50;2107197;28;20415;-69
2021/12/21 01:35:38;;;;;;;11.95;6.00;;;;;;;-4.59;100.00;102535.53;2097910;28;20492;-69
2021/12/21 01:36:49;;;;;;;14.32;6.57;;;;;;;-4.63;100.00;102541.28;2099259;28;20421;-70
2021/12/21 01:38:00;;;;;;;12.45;6.18;;;;;;;-4.62;100.00;102535.38;2107064;28;20095;-68
2021/12/21 01:39:25;;;;;;;17.10;6.90;;;;;;;-4.58;100.00;102532.16;2107029;28;20031;-69
2021/12/21 01:50:24;;;;;;;13.40;6.38;;;;;;;-4.52;100.00;102528.22;2107073;28;20028;-68
2021/12/21 01:51:25;;;;;;;15.60;6.40;;;;;;;-4.53;100.00;102525.59;2107008;28;20028;-68
2021/12/21 01:52:27;;;;;;;14.05;6.57;;;;;;;-4.56;100.00;102526.34;2106979;28;20466;-69
2021/12/21 01:53:27;;;;;;;16.80;7.45;;;;;;;-4.59;100.00;102522.78;2097754;28;20036;-69
2021/12/21 01:54:28;;;;;;;14.70;7.33;;;;;;;-4.66;100.00;102525.03;2097910;28;20025;-69
2021/12/21 01:55:28;;;;;;;15.63;6.53;;;;;;;-4.66;100.00;102524.13;2106289;28;20032;-70
2021/12/21 01:56:29;;;;;;;11.88;6.65;;;;;;;-4.63;100.00;102520.91;2106941;28;20028;-67
2021/12/21 01:57:29;;;;;;;17.87;6.73;;;;;;;-4.59;100.00;102525.34;2107123;28;20380;-68
2021/12/21 01:58:29;;;;;;;14.47;6.30;;;;;;;-4.56;100.00;102525.44;2106858;28;20024;-68
2021/12/21 01:59:31;;;;;;;11.57;5.67;;;;;;;-4.61;100.00;102522.72;2106789;28;20434;-70
2021/12/21 02:00:31;;;;;;;13.98;6.53;;;;;;;-4.59;100.00;102522.78;2106833;28;20012;-69
2021/12/21 02:01:32;;;;;;;19.53;7.00;;;;;;;-4.62;100.00;102525.19;2106848;28;20027;-69
2021/12/21 02:02:32;;;;;;;15.13;6.30;;;;;;;-4.67;100.00;102523.28;2106771;28;20016;-69
2021/12/21 02:03:33;;;;;;;13.57;6.43;;;;;;;-4.67;100.00;102525.84;2106789;28;20515;-68
2021/12/21 02:04:35;;;;;;;17.60;7.75;;;;;;;-4.67;100.00;102524.94;2106819;28;20031;-69
2021/12/21 02:05:37;;;;;;;15.50;6.35;;;;;;;-4.66;100.00;102524.13;2097807;28;20028;-68
2021/12/21 02:06:37;;;;;;;11.77;6.18;;;;;;;-4.65;100.00;102518.28;2097991;28;20028;-70
2021/12/21 02:07:39;;;;;;;18.57;6.87;;;;;;;-4.62;100.00;102515.84;2106808;28;20376;-69
2021/12/21 02:08:39;;;;;;;19.77;7.47;;;;;;;-4.61;100.00;102512.50;2097849;28;20016;-69
2021/12/21 02:09:40;;;;;;;17.87;7.20;;;;;;;-4.61;100.00;102511.63;2089522;28;20108;-69
2021/12/21 02:10:40;;;;;;;15.70;8.10;;;;;;;-4.61;100.00;102516.72;2097786;28;20044;-69
2021/12/21 02:11:41;;;;;;;15.67;8.17;;;;;;;-4.58;100.00;102516.88;2106748;28;20023;-67
2021/12/21 02:12:41;;;;;;;15.17;7.93;;;;;;;-4.53;100.00;102515.41;2106766;28;20444;-67
2021/12/21 02:13:47;;;;;;;16.67;7.50;;;;;;;-4.49;100.00;102516.44;2097708;28;20520;-68
2021/12/21 02:14:58;;;;;;;18.30;7.60;;;;;;;-4.56;100.00;102511.03;2098503;28;20025;-69
2021/12/21 02:15:59;;;;;;;17.55;7.22;;;;;;;-4.65;100.00;102514.03;2106746;28;20034;-69
2021/12/21 02:19:27;;;;;;;13.63;6.55;;;;;;;-4.70;100.00;102512.06;2106914;28;20047;-69
2021/12/21 02:21:47;;;;;;;16.90;6.35;;;;;;;-4.71;100.00;102506.09;2106882;28;20508;-69
2021/12/21 02:22:56;;;;;;;14.25;6.35;;;;;;;-4.68;100.00;102510.47;2106729;28;20378;-69
2021/12/21 02:24:03;;;;;;;12.27;6.10;;;;;;;-4.68;100.00;102505.38;2106659;28;20110;-69
2021/12/21 02:27:42;;;;;;;15.23;7.07;;;;;;;-4.71;100.00;102506.09;2104251;28;20050;-67
2021/12/21 02:29:43;;;;;;;19.40;6.43;;;;;;;-4.72;100.00;102509.44;2106781;28;20107;-69
2021/12/21 02:30:50;;;;;;;12.75;6.63;;;;;;;-4.72;100.00;102504.34;2106022;28;20464;-69
2021/12/21 02:31:52;;;;;;;23.50;7.88;;;;;;;-4.74;100.00;102503.41;2097611;28;20023;-69
2021/12/21 02:32:53;;;;;;;15.95;6.32;;;;;;;-4.74;100.00;102507.63;2097812;28;20110;-69
2021/12/21 02:33:54;;;;;;;14.40;7.50;;;;;;;-4.76;100.00;102507.53;2106607;28;20020;-69
2021/12/21 02:34:54;;;;;;;;;;;;;;;-4.78;100.00;102509.16;2098051;28;20052;-69
2021/12/21 02:35:57;;;;;;;12.65;6.07;;;;;;;-4.79;100.00;102512.50;2097594;28;19908;-69
2021/12/21 02:36:57;;;;;;;14.30;6.22;;;;;;;-4.77;100.00;102508.34;2106681;28;20441;-69
2021/12/21 02:37:57;;;;;;;12.27;5.70;;;;;;;-4.73;100.00;102504.28;2106636;28;20038;-70
2021/12/21 02:38:58;;;;;;;18.23;6.27;;;;;;;-4.71;100.00;102500.13;2106740;28;20033;-69
2021/12/21 02:39:58;;;;;;;13.67;6.40;;;;;;;-4.70;100.00;102500.19;2106663;28;20055;-68
2021/12/21 02:40:58;;;;;;;15.23;7.07;;;;;;;-4.68;100.00;102500.28;2106635;28;20063;-69
2021/12/21 02:41:59;;;;;;;16.90;8.33;;;;;;;-4.73;100.00;102507.69;2106732;28;20081;-69
2021/12/21 02:42:59;;;;;;;15.77;7.53;;;;;;;-4.74;100.00;102505.97;2106628;28;20453;-70
2021/12/21 02:43:59;;;;;;;14.63;7.03;;;;;;;-4.74;100.00;102498.31;2106697;28;20051;-69
2021/12/21 02:45:00;;;;;;;13.57;6.87;;;;;;;-4.75;100.00;102503.34;2106681;28;20024;-70
2021/12/21 02:46:00;;;;;;;14.90;7.03;;;;;;;-4.75;100.00;102501.66;2106650;28;20035;-69
2021/12/21 02:47:00;;;;;;;15.70;7.17;;;;;;;-4.76;100.00;102497.34;2106554;28;20085;-69
2021/12/21 02:48:00;;;;;;;17.40;7.03;;;;;;;-4.75;100.00;102496.56;2106632;28;20063;-69
2021/12/21 02:49:01;;;;;;;18.00;6.97;;;;;;;-4.76;100.00;102499.91;2106617;28;20097;-69
2021/12/21 02:50:02;;;;;;;18.53;6.97;;;;;;;-4.76;100.00;102501.59;2106591;28;20531;-69
2021/12/21 02:51:03;;;;;;;17.95;6.40;;;;;;;-4.79;100.00;102503.19;2106557;28;20048;-68
2021/12/21 02:52:03;;;;;;;17.05;7.25;;;;;;;-4.82;100.00;102508.13;2106549;28;20026;-70
2021/12/21 02:53:05;;;;;;;17.98;7.93;;;;;;;-4.83;100.00;102503.84;2105862;28;20473;-69
2021/12/21 02:54:06;;;;;;;12.13;5.90;;;;;;;-4.82;100.00;102507.25;2105987;28;20032;-69
2021/12/21 02:55:07;;;;;;;14.10;6.60;;;;;;;-4.79;100.00;102502.31;2106527;28;20020;-69
2021/12/21 02:56:08;;;;;;;20.80;7.75;;;;;;;-4.75;100.00;102504.22;2106684;28;20031;-68
2021/12/21 02:57:08;;;;;;;14.83;8.07;;;;;;;-4.78;100.00;102498.97;2106603;28;20043;-68
2021/12/21 02:58:08;;;;;;;19.37;7.77;;;;;;;-4.79;100.00;102499.78;2097550;28;20479;-68
2021/12/21 02:59:09;;;;;;;15.33;7.70;;;;;;;-4.82;100.00;102502.16;2097610;28;20029;-69
2021/12/21 03:00:12;;;;;;;13.82;6.05;;;;;;;-4.84;100.00;102498.66;2106646;28;20031;-68
2021/12/21 03:01:13;;;;;;;17.05;7.43;;;;;;;-4.84;100.00;102501.22;2106476;28;20028;-70
2021/12/21 03:02:13;;;;;;;18.23;7.78;;;;;;;-4.83;100.00;102493.63;2106554;28;20047;-68
2021/12/21 03:03:15;;;;;;;14.27;6.93;;;;;;;-4.82;100.00;102499.63;2106542;28;20028;-69
2021/12/21 03:04:15;;;;;;;;;;;;;;;-4.82;100.00;102497.94;2106893;28;20032;-68
2021/12/21 03:05:15;;;;;;;16.70;6.30;;;;;;;-4.77;100.00;102495.59;2097462;28;20498;-70
2021/12/21 03:06:55;;;;;;;16.50;6.70;;;;;;;-4.75;100.00;102488.03;2097588;28;20028;-69
2021/12/21 03:08:06;;;;;;;12.30;6.35;;;;;;;-4.73;100.00;102487.31;2106281;28;20024;-69
2021/12/21 03:10:25;;;;;;;21.45;7.50;;;;;;;-4.79;100.00;102492.13;2106749;28;20043;-69
2021/12/21 03:14:08;;;;;;;14.80;7.70;;;;;;;-4.86;100.00;102495.19;2106639;28;20043;-69
2021/12/21 03:15:08;;;;;;;14.90;6.53;;;;;;;-4.86;100.00;102501.13;2106472;28;20027;-70
2021/12/21 03:16:09;;;;;;;14.43;6.43;;;;;;;-4.86;100.00;102496.03;2106628;28;20103;-69
2021/12/21 03:17:09;;;;;;;12.15;6.50;;;;;;;-4.85;100.00;102502.00;2106503;28;20055;-70
2021/12/21 03:18:10;;;;;;;13.47;6.43;;;;;;;-4.86;100.00;102490.09;2106755;28;20027;-69
2021/12/21 03:19:11;;;;;;;13.53;6.00;;;;;;;-4.84;100.00;102493.56;2106597;28;20282;-69
2021/12/21 03:20:11;;;;;;;17.75;6.93;;;;;;;-4.86;100.00;102490.94;2106452;28;20446;-69
2021/12/21 03:21:12;;;;;;;14.82;6.47;;;;;;;-4.91;100.00;102488.19;2106426;28;20027;-70
2021/12/21 03:22:14;;;;;;;14.32;7.00;;;;;;;-4.95;100.00;102491.41;2106436;28;20048;-69
2021/12/21 03:23:14;;;;;;;16.25;8.00;;;;;;;-4.96;100.00;102492.16;2106446;28;20058;-69
2021/12/21 03:24:15;;;;;;;16.83;7.47;;;;;;;-4.97;100.00;102492.97;2107507;28;20108;-70
2021/12/21 03:25:16;;;;;;;15.83;6.37;;;;;;;-4.97;100.00;102492.97;2108044;28;20024;-69
2021/12/21 03:26:16;;;;;;;20.05;7.32;;;;;;;-4.97;100.00;102487.88;2099111;28;20020;-70
2021/12/21 03:27:16;;;;;;;17.67;7.47;;;;;;;-4.94;100.00;102488.03;2098992;28;20164;-69
2021/12/21 03:28:16;;;;;;;18.77;7.83;;;;;;;-4.91;100.00;102487.31;2108022;28;20473;-68
2021/12/21 03:29:17;;;;;;;21.27;8.03;;;;;;;-4.89;100.00;102485.72;2108116;28;20091;-70
2021/12/21 03:30:17;;;;;;;15.95;7.05;;;;;;;-4.90;100.00;102489.03;2108014;28;20538;-69
2021/12/21 03:31:18;;;;;;;23.33;8.07;;;;;;;-4.91;100.00;102488.19;2108028;28;20039;-68
2021/12/21 03:32:18;;;;;;;15.55;6.93;;;;;;;-4.94;100.00;102495.69;2108157;28;20036;-69
2021/12/21 03:33:19;;;;;;;15.50;6.77;;;;;;;-4.98;100.00;102491.25;2108074;28;20456;-70
2021/12/21 03:34:19;;;;;;;17.60;6.93;;;;;;;-4.97;100.00;102490.44;2108169;28;20085;-68
2021/12/21 03:35:19;;;;;;;15.02;6.88;;;;;;;-4.94;100.00;102488.03;2108170;28;20050;-69
2021/12/21 03:36:20;;;;;;;15.23;7.67;;;;;;;-4.92;100.00;102486.41;2108085;28;20052;-70
2021/12/21 03:37:20;;;;;;;15.50;7.37;;;;;;;-4.92;100.00;102481.31;2107972;28;20027;-69
2021/12/21 03:38:20;;;;;;;13.83;6.43;;;;;;;-4.93;100.00;102487.22;2108092;28;20024;-69
2021/12/21 03:39:22;;;;;;;17.97;7.53;;;;;;;-4.98;100.00;102488.69;2098979;28;20016;-69
2021/12/21 03:40:22;;;;;;;14.43;7.00;;;;;;;-5.06;100.00;102482.34;2099243;28;20074;-70
2021/12/21 03:41:24;;;;;;;17.30;7.23;;;;;;;-5.12;100.00;102484.59;2108049;28;20020;-69
2021/12/21 03:42:24;;;;;;;19.80;7.93;;;;;;;-5.17;100.00;102489.44;2098993;28;20548;-69
2021/12/21 03:43:25;;;;;;;15.97;7.63;;;;;;;-5.19;100.00;102481.75;2099218;28;20048;-69
2021/12/21 03:44:26;;;;;;;14.93;6.93;;;;;;;-5.19;100.00;102484.31;2108102;28;20615;-68
2021/12/21 03:45:31;;;;;;;11.88;6.70;;;;;;;-5.15;100.00;102476.78;2108032;28;20031;-69
2021/12/21 03:46:32;;;;;;;14.88;6.30;;;;;;;-5.09;100.00;102477.09;2108089;28;20055;-69
2021/12/21 03:47:32;;;;;;;15.15;6.88;;;;;;;-5.07;100.00;102483.13;2108009;28;20393;-68
2021/12/21 03:48:33;;;;;;;14.07;6.83;;;;;;;-5.06;100.00;102478.13;2098937;28;20062;-68
2021/12/21 03:50:35;;;;;;;16.25;7.25;;;;;;;-5.07;100.00;102483.13;2108053;28;20401;-68
2021/12/21 03:51:36;;;;;;;15.23;7.13;;;;;;;-5.13;100.00;102482.84;2107946;28;20030;-69
2021/12/21 03:52:36;;;;;;;13.10;6.57;;;;;;;-5.21;100.00;102485.88;2098798;28;20404;-69
2021/12/21 03:53:37;;;;;;;21.30;7.10;;;;;;;-5.24;100.00;102482.31;2098772;28;20036;-70
2021/12/21 03:54:40;;;;;;;13.95;5.88;;;;;;;-5.25;100.00;102491.63;2098688;28;20051;-69
2021/12/21 03:55:40;;;;;;;15.45;6.20;;;;;;;-5.29;100.00;102482.09;2099043;28;20099;-68
2021/12/21 03:56:42;;;;;;;15.53;6.83;;;;;;;-5.29;100.00;102487.19;2107850;28;20498;-70
2021/12/21 03:57:42;;;;;;;14.57;6.75;;;;;;;-5.26;100.00;102479.69;2107793;28;20084;-70
2021/12/21 03:58:43;;;;;;;14.10;6.60;;;;;;;-5.22;100.00;102481.59;2107834;28;20080;-68
2021/12/21 03:59:45;;;;;;;20.60;6.93;;;;;;;-5.21;100.00;102475.69;2107125;28;20016;-70
2021/12/21 04:00:45;;;;;;;17.30;6.90;;;;;;;-5.23;100.00;102479.84;2107230;28;20016;-69
2021/12/21 04:01:46;;;;;;;22.70;6.67;;;;;;;-5.26;100.00;102479.69;2107732;28;20073;-69
2021/12/21 04:02:46;;;;;;;13.68;6.15;;;;;;;-5.28;100.00;102472.78;2107908;28;20020;-70
2021/12/21 04:03:46;;;;;;;19.30;6.97;;;;;;;-5.28;100.00;102470.25;2107829;28;20028;-69
2021/12/21 04:04:48;;;;;;;16.23;6.10;;;;;;;-5.30;100.00;102473.56;2107811;28;20035;-69
2021/12/21 04:05:48;;;;;;;17.42;6.65;;;;;;;-5.26;100.00;102469.53;2107766;28;20142;-69
2021/12/21 04:06:49;;;;;;;20.27;6.73;;;;;;;-5.23;100.00;102474.78;2107798;28;20081;-68
2021/12/21 04:07:50;;;;;;;19.63;7.15;;;;;;;-5.22;100.00;102473.97;2107775;28;20028;-68
2021/12/21 04:08:50;;;;;;;15.00;6.87;;;;;;;-5.20;100.00;102467.25;2107826;28;20023;-68
2021/12/21 04:09:50;;;;;;;21.47;7.00;;;;;;;-5.21;100.00;102477.34;2107716;28;20550;-69
2021/12/21 04:10:50;;;;;;;18.13;5.90;;;;;;;-5.21;100.00;102479.91;2107749;28;20102;-68
2021/12/21 04:11:51;;;;;;;15.73;6.27;;;;;;;-5.20;100.00;102474.91;2107843;28;20051;-69
2021/12/21 04:12:51;;;;;;;14.97;6.33;;;;;;;-5.15;100.00;102479.34;2107773;28;20046;-69
2021/12/21 04:13:51;;;;;;;13.13;6.37;;;;;;;-5.13;100.00;102477.75;2098492;28;20060;-68
2021/12/21 04:14:57;;;;;;;18.90;7.17;;;;;;;-5.14;100.00;102476.88;2098717;28;20012;-68
2021/12/21 04:16:00;;;;;;;16.58;8.15;;;;;;;-5.15;100.00;102471.69;2098702;28;20043;-68
2021/12/21 04:17:00;;;;;;;17.73;6.90;;;;;;;-5.22;100.00;102475.63;2090630;28;20029;-68
2021/12/21 04:18:02;;;;;;;18.57;7.40;;;;;;;-5.28;100.00;102472.78;2098751;28;20079;-69
2021/12/21 04:19:03;;;;;;;14.95;6.53;;;;;;;-5.33;100.00;102472.56;2098606;28;20115;-70
2021/12/21 04:20:04;;;;;;;16.77;6.70;;;;;;;-5.35;100.00;102472.47;2098775;28;20150;-69
2021/12/21 04:21:06;;;;;;;14.63;7.07;;;;;;;-5.35;100.00;102474.13;2107726;28;20473;-69
2021/12/21 04:22:06;;;;;;;19.27;7.35;;;;;;;-5.34;100.00;102475.91;2107663;28;20052;-70
2021/12/21 04:23:07;;;;;;;14.50;7.43;;;;;;;-5.34;100.00;102481.00;2107708;28;20032;-68
2021/12/21 04:24:07;;;;;;;17.95;7.28;;;;;;;-5.35;100.00;102476.69;2107667;28;20023;-70
2021/12/21 04:25:08;;;;;;;16.60;7.20;;;;;;;-5.38;100.00;102476.56;2107707;28;20464;-70
2021/12/21 04:26:10;;;;;;;16.98;7.95;;;;;;;-5.34;100.00;102473.34;2107603;28;20024;-69
2021/12/21 04:27:10;;;;;;;16.42;8.10;;;;;;;-5.33;100.00;102477.66;2107456;28;20048;-69
2021/12/21 04:28:11;;;;;;;16.77;7.30;;;;;;;-5.32;100.00;102469.19;2107629;28;20143;-68
2021/12/21 04:29:11;;;;;;;14.50;8.00;;;;;;;-5.34;100.00;102471.66;2098652;28;20290;-69
2021/12/21 04:30:12;;;;;;;14.50;7.03;;;;;;;-5.38;100.00;102468.91;2098651;28;20278;-69
2021/12/21 04:31:13;;;;;;;18.20;9.47;;;;;;;-5.39;100.00;102472.22;2107521;28;20052;-71
2021/12/21 04:32:13;;;;;;;19.90;7.82;;;;;;;-5.36;100.00;102472.41;2098510;28;20047;-69
2021/12/21 04:33:13;;;;;;;15.30;7.83;;;;;;;-5.31;100.00;102476.03;2090175;28;20017;-69
2021/12/21 04:34:14;;;;;;;20.47;9.10;;;;;;;-5.25;100.00;102476.34;2090250;28;20410;-70
2021/12/21 04:35:19;;;;;;;22.50;9.03;;;;;;;-5.24;100.00;102478.09;2089518;28;20029;-70
2021/12/21 04:36:19;;;;;;;20.63;9.52;;;;;;;-5.30;100.00;102475.25;2098855;28;20024;-69
2021/12/21 04:37:22;;;;;;;20.37;9.17;;;;;;;-5.35;100.00;102479.22;2107586;28;20062;-70
2021/12/21 04:38:27;;;;;;;22.17;8.07;;;;;;;-5.36;100.00;102467.31;2098403;28;20029;-69
2021/12/21 04:39:38;;;;;;;18.38;7.93;;;;;;;-5.38;100.00;102474.84;2099085;28;20055;-69
2021/12/21 04:40:42;;;;;;;16.05;6.97;;;;;;;-5.38;100.00;102474.00;2107567;28;20081;-70
2021/12/21 04:41:44;;;;;;;18.85;8.23;;;;;;;-5.38;100.00;102468.91;2107494;28;20047;-70
2021/12/21 04:42:44;;;;;;;16.30;7.88;;;;;;;-5.37;100.00;102463.03;2107498;28;20049;-70
2021/12/21 04:43:44;;;;;;;16.33;7.33;;;;;;;-5.34;100.00;102470.81;2107487;28;20016;-69
2021/12/21 04:44:44;;;;;;;18.73;7.30;;;;;;;-5.32;100.00;102461.56;2107538;28;20020;-69
2021/12/21 04:45:45;;;;;;;19.13;7.03;;;;;;;-5.31;100.00;102463.31;2098457;28;20313;-70
2021/12/21 04:46:45;;;;;;;15.37;7.00;;;;;;;-5.31;100.00;102460.75;2098597;28;20143;-69
2021/12/21 04:47:46;;;;;;;17.77;7.63;;;;;;;-5.32;100.00;102464.09;2107401;28;20286;-69
2021/12/21 04:48:47;;;;;;;17.80;7.83;;;;;;;-5.32;100.00;102464.09;2107432;28;20028;-69
2021/12/21 04:49:47;;;;;;;20.05;7.85;;;;;;;-5.33;100.00;102467.47;2107373;28;20035;-70
2021/12/21 04:50:48;;;;;;;20.10;8.20;;;;;;;-5.34;100.00;102463.19;2107578;28;20044;-69
2021/12/21 04:51:48;;;;;;;19.27;7.75;;;;;;;-5.31;100.00;102460.75;2107454;28;20043;-68
2021/12/21 04:52:48;;;;;;;20.00;7.27;;;;;;;-5.32;100.00;102464.09;2107565;28;20031;-68
2021/12/21 04:53:49;;;;;;;16.57;7.63;;;;;;;-5.32;100.00;102461.56;2107374;28;20032;-68
2021/12/21 04:54:49;;;;;;;17.27;6.53;;;;;;;-5.35;100.00;102458.84;2107475;28;20020;-69
2021/12/21 04:55:50;;;;;;;17.93;8.47;;;;;;;-5.35;100.00;102463.94;2107380;28;20278;-69
2021/12/21 04:56:50;;;;;;;22.35;7.20;;;;;;;-5.36;100.00;102467.31;2107426;28;20054;-69
2021/12/21 04:57:51;;;;;;;16.43;7.20;;;;;;;-5.40;100.00;102466.28;2107389;28;20012;-70
2021/12/21 04:58:51;;;;;;;16.00;7.17;;;;;;;-5.45;100.00;102460.97;2098388;28;20023;-69
2021/12/21 04:59:51;;;;;;;17.47;7.50;;;;;;;-5.47;100.00;102462.53;2098346;28;20036;-69
2021/12/21 05:00:52;;;;;;;19.00;7.27;;;;;;;-5.40;100.00;102460.31;2107360;28;20020;-69
2021/12/21 05:01:53;;;;;;;18.23;7.97;;;;;;;-5.36;100.00;102468.19;2107398;28;20027;-69
2021/12/21 05:02:54;;;;;;;19.40;8.50;;;;;;;-5.30;100.00;102467.63;2107371;28;20093;-69
2021/12/21 05:03:54;;;;;;;18.70;7.23;;;;;;;-5.29;100.00;102456.63;2098284;28;20025;-68
2021/12/21 05:04:54;;;;;;;14.43;7.33;;;;;;;-5.28;100.00;102466.00;2090029;28;20394;-70
2021/12/21 05:05:54;;;;;;;15.10;7.40;;;;;;;-5.29;100.00;102459.19;2098308;28;20034;-69
2021/12/21 05:06:55;;;;;;;16.20;7.40;;;;;;;-5.31;100.00;102465.84;2107311;28;20035;-68
2021/12/21 05:08:07;;;;;;;17.07;7.53;;;;;;;-5.38;100.00;102466.38;2107297;28;20055;-68
2021/12/21 05:09:14;;;;;;;16.75;7.57;;;;;;;-5.44;100.00;102464.38;2107264;28;20457;-69
2021/12/21 05:10:14;;;;;;;14.93;6.75;;;;;;;-5.49;100.00;102474.31;2098113;28;20066;-70
2021/12/21 05:11:18;;;;;;;14.23;7.63;;;;;;;-5.52;100.00;102470.75;2098341;28;20017;-70
2021/12/21 05:12:18;;;;;;;16.88;7.88;;;;;;;-5.53;100.00;102463.91;2107287;28;20032;-70
2021/12/21 05:13:22;;;;;;;16.80;7.27;;;;;;;-5.56;100.00;102472.25;2107225;28;20016;-70
2021/12/21 05:14:22;;;;;;;18.85;7.75;;;;;;;-5.56;100.00;102464.63;2107140;28;20063;-70
2021/12/21 05:15:23;;;;;;;14.13;7.80;;;;;;;-5.48;100.00;102467.59;2107223;28;20096;-68
2021/12/21 05:16:23;;;;;;;15.53;7.67;;;;;;;-5.39;100.00;102467.16;2098174;28;20024;-70
2021/12/21 05:17:23;;;;;;;19.73;7.63;;;;;;;-5.35;100.00;102471.59;2089912;28;20016;-68
2021/12/21 05:18:24;;;;;;;18.13;7.23;;;;;;;-5.34;100.00;102475.91;2098251;28;20031;-70
2021/12/21 05:19:25;;;;;;;18.38;7.97;;;;;;;-5.35;100.00;102475.03;2107181;28;20020;-69
2021/12/21 05:20:25;;;;;;;19.47;8.90;;;;;;;-5.39;100.00;102467.16;2107356;28;20111;-69
2021/12/21 05:21:25;;;;;;;18.63;7.27;;;;;;;-5.47;100.00;102471.88;2107221;28;20565;-70